sensor_id;sensor_type;location;lat;lon;timestamp;temperature;humidity
54461;DHT22;40371;49.414;11.010;2023-04-16T00:00:31;8.20;99.90
54461;DHT22;40371;49.414;11.010;2023-04-16T00:02:56;8.20;99.90
54461;DHT22;40371;49.414;11.010;2023-04-16T00:05:22;8.30;99.90
54461;DHT22;40371;49.414;11.010;2023-04-16T00:07:48;8.20;99.90
54461;DHT22;40371;49.414;11.010;2023-04-16T00:10:16;8.30;99.90
54461;DHT22;40371;49.414;11.010;2023-04-16T00:12:41;8.20;99.90
54461;DHT22;40371;49.414;11.010;2023-04-16T00:15:08;8.20;99.90
54461;DHT22;40371;49.414;11.010;2023-04-16T00:17:33;8.20;99.90
54461;DHT22;40371;49.414;11.010;2023-04-16T00:19:59;8.20;99.90
54461;DHT22;40371;49.414;11.010;2023-04-16T00:22:24;8.20;99.90
54461;DHT22;40371;49.414;11.010;2023-04-16T00:24:50;8.30;99.90
54461;DHT22;40371;49.414;11.010;2023-04-16T00:27:17;8.30;99.90
54461;DHT22;40371;49.414;11.010;2023-04-16T00:29:42;8.20;99.90
54461;DHT22;40371;49.414;11.010;2023-04-16T00:32:08;8.20;99.90
54461;DHT22;40371;49.414;11.010;2023-04-16T00:34:34;8.20;99.90
54461;DHT22;40371;49.414;11.010;2023-04-16T00:37:00;8.20;99.90
54461;DHT22;40371;49.414;11.010;2023-04-16T00:39:25;8.20;99.90
54461;DHT22;40371;49.414;11.010;2023-04-16T00:41:51;8.20;99.90
54461;DHT22;40371;49.414;11.010;2023-04-16T00:44:17;8.20;99.90
54461;DHT22;40371;49.414;11.010;2023-04-16T00:46:43;8.20;99.90
54461;DHT22;40371;49.414;11.010;2023-04-16T00:49:08;8.20;99.90
54461;DHT22;40371;49.414;11.010;2023-04-16T00:51:35;8.20;99.90
54461;DHT22;40371;49.414;11.010;2023-04-16T00:54:01;8.20;99.90
54461;DHT22;40371;49.414;11.010;2023-04-16T00:56:27;8.20;99.90
54461;DHT22;40371;49.414;11.010;2023-04-16T00:58:54;8.20;99.90
54461;DHT22;40371;49.414;11.010;2023-04-16T01:01:21;8.20;99.90
54461;DHT22;40371;49.414;11.010;2023-04-16T01:03:47;8.20;99.90
54461;DHT22;40371;49.414;11.010;2023-04-16T01:06:15;8.20;99.90
54461;DHT22;40371;49.414;11.010;2023-04-16T01:08:41;8.20;99.90
54461;DHT22;40371;49.414;11.010;2023-04-16T01:11:07;8.20;99.90
54461;DHT22;40371;49.414;11.010;2023-04-16T01:13:33;8.20;99.90
54461;DHT22;40371;49.414;11.010;2023-04-16T01:16:00;8.20;99.90
54461;DHT22;40371;49.414;11.010;2023-04-16T01:18:25;8.20;99.90
54461;DHT22;40371;49.414;11.010;2023-04-16T01:20:51;8.20;99.90
54461;DHT22;40371;49.414;11.010;2023-04-16T01:23:17;8.10;99.90
54461;DHT22;40371;49.414;11.010;2023-04-16T01:25:44;8.20;99.90
54461;DHT22;40371;49.414;11.010;2023-04-16T01:28:10;8.20;99.90
54461;DHT22;40371;49.414;11.010;2023-04-16T01:30:36;8.20;99.90
54461;DHT22;40371;49.414;11.010;2023-04-16T01:33:10;8.20;99.90
54461;DHT22;40371;49.414;11.010;2023-04-16T01:35:36;8.20;99.90
54461;DHT22;40371;49.414;11.010;2023-04-16T01:38:02;8.20;99.90
54461;DHT22;40371;49.414;11.010;2023-04-16T01:40:29;8.20;99.90
54461;DHT22;40371;49.414;11.010;2023-04-16T01:42:55;8.20;99.90
54461;DHT22;40371;49.414;11.010;2023-04-16T01:45:21;8.20;99.90
54461;DHT22;40371;49.414;11.010;2023-04-16T01:47:49;8.20;99.90
54461;DHT22;40371;49.414;11.010;2023-04-16T01:50:16;8.30;99.90
54461;DHT22;40371;49.414;11.010;2023-04-16T01:52:42;8.30;99.90
54461;DHT22;40371;49.414;11.010;2023-04-16T01:55:08;8.20;99.90
54461;DHT22;40371;49.414;11.010;2023-04-16T01:57:34;8.20;99.90
54461;DHT22;40371;49.414;11.010;2023-04-16T01:59:59;8.10;99.90
54461;DHT22;40371;49.414;11.010;2023-04-16T02:02:25;8.20;99.90
54461;DHT22;40371;49.414;11.010;2023-04-16T02:04:54;8.10;99.90
54461;DHT22;40371;49.414;11.010;2023-04-16T02:07:21;8.10;99.90
54461;DHT22;40371;49.414;11.010;2023-04-16T02:09:46;8.10;99.90
54461;DHT22;40371;49.414;11.010;2023-04-16T02:12:12;8.10;99.90
54461;DHT22;40371;49.414;11.010;2023-04-16T02:14:38;8.10;99.90
54461;DHT22;40371;49.414;11.010;2023-04-16T02:17:03;8.10;99.90
54461;DHT22;40371;49.414;11.010;2023-04-16T02:19:35;8.10;99.90
54461;DHT22;40371;49.414;11.010;2023-04-16T02:22:01;8.10;99.90
54461;DHT22;40371;49.414;11.010;2023-04-16T02:24:27;8.10;99.90
54461;DHT22;40371;49.414;11.010;2023-04-16T02:26:53;8.10;99.90
54461;DHT22;40371;49.414;11.010;2023-04-16T02:29:19;8.10;99.90
54461;DHT22;40371;49.414;11.010;2023-04-16T02:31:53;8.10;99.90
54461;DHT22;40371;49.414;11.010;2023-04-16T02:34:19;8.10;99.90
54461;DHT22;40371;49.414;11.010;2023-04-16T02:36:45;8.00;99.90
54461;DHT22;40371;49.414;11.010;2023-04-16T02:39:10;8.10;99.90
54461;DHT22;40371;49.414;11.010;2023-04-16T02:41:36;8.10;99.90
54461;DHT22;40371;49.414;11.010;2023-04-16T02:44:03;8.10;99.90
54461;DHT22;40371;49.414;11.010;2023-04-16T02:46:28;8.10;99.90
54461;DHT22;40371;49.414;11.010;2023-04-16T02:48:54;8.10;99.90
54461;DHT22;40371;49.414;11.010;2023-04-16T02:51:19;8.10;99.90
54461;DHT22;40371;49.414;11.010;2023-04-16T02:53:45;8.10;99.90
54461;DHT22;40371;49.414;11.010;2023-04-16T02:56:11;8.20;99.90
54461;DHT22;40371;49.414;11.010;2023-04-16T02:58:37;8.20;99.90
54461;DHT22;40371;49.414;11.010;2023-04-16T03:01:03;8.20;99.90
54461;DHT22;40371;49.414;11.010;2023-04-16T03:03:29;8.20;99.90
54461;DHT22;40371;49.414;11.010;2023-04-16T03:05:54;8.20;99.90
54461;DHT22;40371;49.414;11.010;2023-04-16T03:08:20;8.20;99.90
54461;DHT22;40371;49.414;11.010;2023-04-16T03:10:46;8.20;99.90
54461;DHT22;40371;49.414;11.010;2023-04-16T03:13:13;8.20;99.90
54461;DHT22;40371;49.414;11.010;2023-04-16T03:15:38;8.20;99.90
54461;DHT22;40371;49.414;11.010;2023-04-16T03:18:04;8.20;99.90
54461;DHT22;40371;49.414;11.010;2023-04-16T03:20:30;8.20;99.90
54461;DHT22;40371;49.414;11.010;2023-04-16T03:22:56;8.30;99.90
54461;DHT22;40371;49.414;11.010;2023-04-16T03:25:21;8.20;99.90
54461;DHT22;40371;49.414;11.010;2023-04-16T03:27:47;8.30;99.90
54461;DHT22;40371;49.414;11.010;2023-04-16T03:30:14;8.20;99.90
54461;DHT22;40371;49.414;11.010;2023-04-16T03:32:41;8.20;99.90
54461;DHT22;40371;49.414;11.010;2023-04-16T03:35:08;8.30;99.90
54461;DHT22;40371;49.414;11.010;2023-04-16T03:37:34;8.30;99.90
54461;DHT22;40371;49.414;11.010;2023-04-16T03:40:00;8.30;99.90
54461;DHT22;40371;49.414;11.010;2023-04-16T03:42:26;8.30;99.90
54461;DHT22;40371;49.414;11.010;2023-04-16T03:44:51;8.20;99.90
54461;DHT22;40371;49.414;11.010;2023-04-16T03:47:19;8.30;99.90
54461;DHT22;40371;49.414;11.010;2023-04-16T03:49:45;8.30;99.90
54461;DHT22;40371;49.414;11.010;2023-04-16T03:52:11;8.30;99.90
54461;DHT22;40371;49.414;11.010;2023-04-16T03:54:37;8.30;99.90
54461;DHT22;40371;49.414;11.010;2023-04-16T03:57:18;8.30;99.90
54461;DHT22;40371;49.414;11.010;2023-04-16T03:59:44;8.40;99.90
54461;DHT22;40371;49.414;11.010;2023-04-16T04:02:10;8.50;99.90
54461;DHT22;40371;49.414;11.010;2023-04-16T04:04:36;8.40;99.90
54461;DHT22;40371;49.414;11.010;2023-04-16T04:07:01;8.40;99.90
54461;DHT22;40371;49.414;11.010;2023-04-16T04:09:27;8.40;99.90
54461;DHT22;40371;49.414;11.010;2023-04-16T04:11:53;8.40;99.90
54461;DHT22;40371;49.414;11.010;2023-04-16T04:14:19;8.50;99.90
54461;DHT22;40371;49.414;11.010;2023-04-16T04:16:44;8.50;99.90
54461;DHT22;40371;49.414;11.010;2023-04-16T04:19:10;8.50;99.90
54461;DHT22;40371;49.414;11.010;2023-04-16T04:21:36;8.50;99.90
54461;DHT22;40371;49.414;11.010;2023-04-16T04:24:03;8.30;99.90
54461;DHT22;40371;49.414;11.010;2023-04-16T04:26:29;8.40;99.90
54461;DHT22;40371;49.414;11.010;2023-04-16T04:28:55;8.50;99.90
54461;DHT22;40371;49.414;11.010;2023-04-16T04:31:21;8.50;99.90
54461;DHT22;40371;49.414;11.010;2023-04-16T04:33:46;8.40;99.90
54461;DHT22;40371;49.414;11.010;2023-04-16T04:36:12;8.40;99.90
54461;DHT22;40371;49.414;11.010;2023-04-16T04:38:38;8.40;99.90
54461;DHT22;40371;49.414;11.010;2023-04-16T04:41:03;8.50;99.90
54461;DHT22;40371;49.414;11.010;2023-04-16T04:43:33;8.40;99.90
54461;DHT22;40371;49.414;11.010;2023-04-16T04:45:59;8.40;99.90
54461;DHT22;40371;49.414;11.010;2023-04-16T04:48:26;8.60;99.90
54461;DHT22;40371;49.414;11.010;2023-04-16T04:50:53;8.60;99.90
54461;DHT22;40371;49.414;11.010;2023-04-16T04:53:18;8.70;99.90
54461;DHT22;40371;49.414;11.010;2023-04-16T04:55:44;8.80;99.90
54461;DHT22;40371;49.414;11.010;2023-04-16T04:58:10;8.80;99.90
54461;DHT22;40371;49.414;11.010;2023-04-16T05:00:36;8.70;99.90
54461;DHT22;40371;49.414;11.010;2023-04-16T05:03:04;8.50;99.90
54461;DHT22;40371;49.414;11.010;2023-04-16T05:05:29;8.50;99.90
54461;DHT22;40371;49.414;11.010;2023-04-16T05:07:55;8.50;99.90
54461;DHT22;40371;49.414;11.010;2023-04-16T05:10:20;8.50;99.90
54461;DHT22;40371;49.414;11.010;2023-04-16T05:12:46;8.60;99.90
54461;DHT22;40371;49.414;11.010;2023-04-16T05:15:15;8.60;99.90
54461;DHT22;40371;49.414;11.010;2023-04-16T05:17:41;8.60;99.90
54461;DHT22;40371;49.414;11.010;2023-04-16T05:20:10;8.60;99.90
54461;DHT22;40371;49.414;11.010;2023-04-16T05:22:36;8.70;99.90
54461;DHT22;40371;49.414;11.010;2023-04-16T05:25:01;8.60;99.90
54461;DHT22;40371;49.414;11.010;2023-04-16T05:27:27;8.70;99.90
54461;DHT22;40371;49.414;11.010;2023-04-16T05:29:53;8.80;99.90
54461;DHT22;40371;49.414;11.010;2023-04-16T05:32:18;8.80;99.90
54461;DHT22;40371;49.414;11.010;2023-04-16T05:34:44;8.80;99.90
54461;DHT22;40371;49.414;11.010;2023-04-16T05:37:10;8.80;99.90
54461;DHT22;40371;49.414;11.010;2023-04-16T05:39:35;8.80;99.90
54461;DHT22;40371;49.414;11.010;2023-04-16T05:42:01;8.80;99.90
54461;DHT22;40371;49.414;11.010;2023-04-16T05:44:26;8.90;99.90
54461;DHT22;40371;49.414;11.010;2023-04-16T05:46:52;9.00;99.90
54461;DHT22;40371;49.414;11.010;2023-04-16T05:49:17;9.10;99.90
54461;DHT22;40371;49.414;11.010;2023-04-16T05:51:43;9.00;99.90
54461;DHT22;40371;49.414;11.010;2023-04-16T05:54:09;8.90;99.90
54461;DHT22;40371;49.414;11.010;2023-04-16T05:56:34;9.00;99.90
54461;DHT22;40371;49.414;11.010;2023-04-16T05:59:00;8.90;99.90
54461;DHT22;40371;49.414;11.010;2023-04-16T06:01:25;8.90;99.90
54461;DHT22;40371;49.414;11.010;2023-04-16T06:03:51;9.00;99.90
54461;DHT22;40371;49.414;11.010;2023-04-16T06:06:16;9.20;99.90
54461;DHT22;40371;49.414;11.010;2023-04-16T06:08:42;9.30;99.90
54461;DHT22;40371;49.414;11.010;2023-04-16T06:11:07;9.40;99.90
54461;DHT22;40371;49.414;11.010;2023-04-16T06:13:33;9.20;99.90
54461;DHT22;40371;49.414;11.010;2023-04-16T06:15:59;9.30;99.90
54461;DHT22;40371;49.414;11.010;2023-04-16T06:18:24;9.30;99.90
54461;DHT22;40371;49.414;11.010;2023-04-16T06:20:50;9.40;99.90
54461;DHT22;40371;49.414;11.010;2023-04-16T06:23:15;9.40;99.90
54461;DHT22;40371;49.414;11.010;2023-04-16T06:25:41;9.40;99.90
54461;DHT22;40371;49.414;11.010;2023-04-16T06:28:06;9.40;99.90
54461;DHT22;40371;49.414;11.010;2023-04-16T06:30:32;9.30;99.90
54461;DHT22;40371;49.414;11.010;2023-04-16T06:32:58;9.30;99.90
54461;DHT22;40371;49.414;11.010;2023-04-16T06:35:23;9.20;99.90
54461;DHT22;40371;49.414;11.010;2023-04-16T06:37:49;9.20;99.90
54461;DHT22;40371;49.414;11.010;2023-04-16T06:40:15;9.40;99.90
54461;DHT22;40371;49.414;11.010;2023-04-16T06:42:41;9.20;99.90
54461;DHT22;40371;49.414;11.010;2023-04-16T06:45:07;9.30;99.90
54461;DHT22;40371;49.414;11.010;2023-04-16T06:47:33;9.50;99.90
54461;DHT22;40371;49.414;11.010;2023-04-16T06:49:58;9.60;99.90
54461;DHT22;40371;49.414;11.010;2023-04-16T06:52:24;9.50;99.90
54461;DHT22;40371;49.414;11.010;2023-04-16T06:54:50;9.30;99.90
54461;DHT22;40371;49.414;11.010;2023-04-16T06:57:18;9.20;99.90
54461;DHT22;40371;49.414;11.010;2023-04-16T06:59:44;9.50;99.90
54461;DHT22;40371;49.414;11.010;2023-04-16T07:02:10;9.40;99.90
54461;DHT22;40371;49.414;11.010;2023-04-16T07:04:35;9.60;99.90
54461;DHT22;40371;49.414;11.010;2023-04-16T07:07:01;9.40;99.90
54461;DHT22;40371;49.414;11.010;2023-04-16T07:09:27;9.40;99.90
54461;DHT22;40371;49.414;11.010;2023-04-16T07:11:53;9.60;99.90
54461;DHT22;40371;49.414;11.010;2023-04-16T07:14:23;9.70;99.90
54461;DHT22;40371;49.414;11.010;2023-04-16T07:16:48;9.50;99.90
54461;DHT22;40371;49.414;11.010;2023-04-16T07:19:16;9.60;99.90
54461;DHT22;40371;49.414;11.010;2023-04-16T07:21:42;9.70;99.90
54461;DHT22;40371;49.414;11.010;2023-04-16T07:24:09;9.50;99.90
54461;DHT22;40371;49.414;11.010;2023-04-16T07:26:35;9.40;99.90
54461;DHT22;40371;49.414;11.010;2023-04-16T07:29:01;9.40;99.90
54461;DHT22;40371;49.414;11.010;2023-04-16T07:31:27;9.60;99.90
54461;DHT22;40371;49.414;11.010;2023-04-16T07:33:52;9.30;99.90
54461;DHT22;40371;49.414;11.010;2023-04-16T07:36:18;9.20;99.90
54461;DHT22;40371;49.414;11.010;2023-04-16T07:38:44;9.30;99.90
54461;DHT22;40371;49.414;11.010;2023-04-16T07:41:10;9.40;99.90
54461;DHT22;40371;49.414;11.010;2023-04-16T07:43:36;9.50;99.90
54461;DHT22;40371;49.414;11.010;2023-04-16T07:46:01;9.40;99.90
54461;DHT22;40371;49.414;11.010;2023-04-16T07:48:27;9.40;99.90
54461;DHT22;40371;49.414;11.010;2023-04-16T07:50:53;9.40;99.90
54461;DHT22;40371;49.414;11.010;2023-04-16T07:53:18;9.30;99.90
54461;DHT22;40371;49.414;11.010;2023-04-16T07:55:44;9.50;99.90
54461;DHT22;40371;49.414;11.010;2023-04-16T07:58:10;9.40;99.90
54461;DHT22;40371;49.414;11.010;2023-04-16T08:00:35;9.70;99.90
54461;DHT22;40371;49.414;11.010;2023-04-16T08:03:01;9.80;99.90
54461;DHT22;40371;49.414;11.010;2023-04-16T08:05:27;9.70;99.90
54461;DHT22;40371;49.414;11.010;2023-04-16T08:07:52;10.10;99.90
54461;DHT22;40371;49.414;11.010;2023-04-16T08:10:18;10.40;99.90
54461;DHT22;40371;49.414;11.010;2023-04-16T08:12:44;10.50;99.90
54461;DHT22;40371;49.414;11.010;2023-04-16T08:15:10;10.10;99.90
54461;DHT22;40371;49.414;11.010;2023-04-16T08:17:35;10.50;99.90
54461;DHT22;40371;49.414;11.010;2023-04-16T08:20:02;10.70;99.90
54461;DHT22;40371;49.414;11.010;2023-04-16T08:22:29;10.80;99.90
54461;DHT22;40371;49.414;11.010;2023-04-16T08:24:55;10.90;99.90
54461;DHT22;40371;49.414;11.010;2023-04-16T08:27:20;10.80;99.90
54461;DHT22;40371;49.414;11.010;2023-04-16T08:29:46;11.00;99.90
54461;DHT22;40371;49.414;11.010;2023-04-16T08:32:12;11.00;99.90
54461;DHT22;40371;49.414;11.010;2023-04-16T08:34:38;10.80;99.90
54461;DHT22;40371;49.414;11.010;2023-04-16T08:37:04;10.80;99.90
54461;DHT22;40371;49.414;11.010;2023-04-16T08:39:29;10.80;99.90
54461;DHT22;40371;49.414;11.010;2023-04-16T08:41:56;10.70;99.90
54461;DHT22;40371;49.414;11.010;2023-04-16T08:44:30;11.00;99.90
54461;DHT22;40371;49.414;11.010;2023-04-16T08:46:58;11.10;99.90
54461;DHT22;40371;49.414;11.010;2023-04-16T08:49:25;11.00;99.90
54461;DHT22;40371;49.414;11.010;2023-04-16T08:51:54;10.90;99.90
54461;DHT22;40371;49.414;11.010;2023-04-16T08:54:44;10.80;99.90
54461;DHT22;40371;49.414;11.010;2023-04-16T08:57:11;10.70;99.90
54461;DHT22;40371;49.414;11.010;2023-04-16T08:59:39;10.70;99.90
54461;DHT22;40371;49.414;11.010;2023-04-16T09:02:11;11.00;99.90
54461;DHT22;40371;49.414;11.010;2023-04-16T09:04:37;11.20;99.90
54461;DHT22;40371;49.414;11.010;2023-04-16T09:07:04;11.20;99.90
54461;DHT22;40371;49.414;11.010;2023-04-16T09:09:32;11.70;99.90
54461;DHT22;40371;49.414;11.010;2023-04-16T09:11:58;11.50;99.90
54461;DHT22;40371;49.414;11.010;2023-04-16T09:14:24;11.30;99.90
54461;DHT22;40371;49.414;11.010;2023-04-16T09:16:52;11.20;99.90
54461;DHT22;40371;49.414;11.010;2023-04-16T09:19:33;11.10;99.90
54461;DHT22;40371;49.414;11.010;2023-04-16T09:22:00;11.00;99.90
54461;DHT22;40371;49.414;11.010;2023-04-16T09:24:26;11.00;99.90
54461;DHT22;40371;49.414;11.010;2023-04-16T09:26:53;11.10;99.90
54461;DHT22;40371;49.414;11.010;2023-04-16T09:29:48;11.40;99.90
54461;DHT22;40371;49.414;11.010;2023-04-16T09:32:14;11.40;99.90
54461;DHT22;40371;49.414;11.010;2023-04-16T09:34:59;11.10;99.90
54461;DHT22;40371;49.414;11.010;2023-04-16T09:37:27;10.90;99.90
54461;DHT22;40371;49.414;11.010;2023-04-16T09:40:02;11.10;99.90
54461;DHT22;40371;49.414;11.010;2023-04-16T09:42:33;11.00;99.90
54461;DHT22;40371;49.414;11.010;2023-04-16T09:45:00;11.20;99.90
54461;DHT22;40371;49.414;11.010;2023-04-16T09:47:38;11.00;99.90
54461;DHT22;40371;49.414;11.010;2023-04-16T09:50:04;10.90;99.90
54461;DHT22;40371;49.414;11.010;2023-04-16T09:52:30;10.90;99.90
54461;DHT22;40371;49.414;11.010;2023-04-16T09:54:56;10.90;99.90
54461;DHT22;40371;49.414;11.010;2023-04-16T09:57:23;11.00;99.90
54461;DHT22;40371;49.414;11.010;2023-04-16T10:00:01;11.10;99.90
54461;DHT22;40371;49.414;11.010;2023-04-16T10:02:30;11.40;99.90
54461;DHT22;40371;49.414;11.010;2023-04-16T10:04:58;11.20;99.90
54461;DHT22;40371;49.414;11.010;2023-04-16T10:07:32;11.30;99.90
54461;DHT22;40371;49.414;11.010;2023-04-16T10:09:58;11.40;99.90
54461;DHT22;40371;49.414;11.010;2023-04-16T10:12:23;11.20;99.90
54461;DHT22;40371;49.414;11.010;2023-04-16T10:14:49;11.20;99.90
54461;DHT22;40371;49.414;11.010;2023-04-16T10:17:15;11.10;99.90
54461;DHT22;40371;49.414;11.010;2023-04-16T10:19:43;11.10;99.90
54461;DHT22;40371;49.414;11.010;2023-04-16T10:22:09;11.00;99.90
54461;DHT22;40371;49.414;11.010;2023-04-16T10:24:35;11.00;99.90
54461;DHT22;40371;49.414;11.010;2023-04-16T10:27:01;11.00;99.90
54461;DHT22;40371;49.414;11.010;2023-04-16T10:29:28;11.10;99.90
54461;DHT22;40371;49.414;11.010;2023-04-16T10:31:55;11.10;99.90
54461;DHT22;40371;49.414;11.010;2023-04-16T10:34:22;11.30;99.90
54461;DHT22;40371;49.414;11.010;2023-04-16T10:36:49;11.30;99.90
54461;DHT22;40371;49.414;11.010;2023-04-16T10:39:19;11.40;99.90
54461;DHT22;40371;49.414;11.010;2023-04-16T10:41:45;11.30;99.90
54461;DHT22;40371;49.414;11.010;2023-04-16T10:44:12;11.30;99.90
54461;DHT22;40371;49.414;11.010;2023-04-16T10:46:49;11.10;99.90
54461;DHT22;40371;49.414;11.010;2023-04-16T10:51:42;10.80;99.90
54461;DHT22;40371;49.414;11.010;2023-04-16T10:56:44;10.70;99.90
54461;DHT22;40371;49.414;11.010;2023-04-16T10:59:10;10.80;99.90
54461;DHT22;40371;49.414;11.010;2023-04-16T11:01:40;10.80;99.90
54461;DHT22;40371;49.414;11.010;2023-04-16T11:12:16;10.90;99.90
54461;DHT22;40371;49.414;11.010;2023-04-16T11:14:50;11.10;99.90
54461;DHT22;40371;49.414;11.010;2023-04-16T11:17:16;11.20;99.90
54461;DHT22;40371;49.414;11.010;2023-04-16T11:19:43;11.30;99.90
54461;DHT22;40371;49.414;11.010;2023-04-16T11:22:12;11.00;99.90
54461;DHT22;40371;49.414;11.010;2023-04-16T11:24:39;10.70;99.90
54461;DHT22;40371;49.414;11.010;2023-04-16T11:27:06;10.80;99.90
54461;DHT22;40371;49.414;11.010;2023-04-16T11:29:32;10.80;99.90
54461;DHT22;40371;49.414;11.010;2023-04-16T11:31:58;10.80;99.90
54461;DHT22;40371;49.414;11.010;2023-04-16T11:34:24;10.70;99.90
54461;DHT22;40371;49.414;11.010;2023-04-16T11:36:51;10.50;99.90
54461;DHT22;40371;49.414;11.010;2023-04-16T11:39:17;10.40;99.90
54461;DHT22;40371;49.414;11.010;2023-04-16T11:41:47;10.40;99.90
54461;DHT22;40371;49.414;11.010;2023-04-16T11:44:20;10.50;99.90
54461;DHT22;40371;49.414;11.010;2023-04-16T11:46:48;10.50;99.90
54461;DHT22;40371;49.414;11.010;2023-04-16T11:49:14;10.60;99.90
54461;DHT22;40371;49.414;11.010;2023-04-16T11:51:43;10.70;99.90
54461;DHT22;40371;49.414;11.010;2023-04-16T11:54:16;10.90;99.90
54461;DHT22;40371;49.414;11.010;2023-04-16T11:56:45;10.90;99.90
54461;DHT22;40371;49.414;11.010;2023-04-16T11:59:18;11.10;99.90
54461;DHT22;40371;49.414;11.010;2023-04-16T12:01:48;11.00;99.90
54461;DHT22;40371;49.414;11.010;2023-04-16T12:04:17;11.00;99.90
54461;DHT22;40371;49.414;11.010;2023-04-16T12:07:08;10.90;99.90
54461;DHT22;40371;49.414;11.010;2023-04-16T12:09:36;10.90;99.90
54461;DHT22;40371;49.414;11.010;2023-04-16T12:12:02;10.90;99.90
54461;DHT22;40371;49.414;11.010;2023-04-16T12:14:29;11.00;99.90
54461;DHT22;40371;49.414;11.010;2023-04-16T12:16:55;10.90;99.90
54461;DHT22;40371;49.414;11.010;2023-04-16T12:19:21;10.90;99.90
54461;DHT22;40371;49.414;11.010;2023-04-16T12:21:48;10.80;99.90
54461;DHT22;40371;49.414;11.010;2023-04-16T12:24:16;10.80;99.90
54461;DHT22;40371;49.414;11.010;2023-04-16T12:26:46;10.80;99.90
54461;DHT22;40371;49.414;11.010;2023-04-16T12:29:24;10.80;99.90
54461;DHT22;40371;49.414;11.010;2023-04-16T12:31:51;10.80;99.90
54461;DHT22;40371;49.414;11.010;2023-04-16T12:34:18;10.80;99.90
54461;DHT22;40371;49.414;11.010;2023-04-16T12:36:44;10.90;99.90
54461;DHT22;40371;49.414;11.010;2023-04-16T12:39:11;11.00;99.90
54461;DHT22;40371;49.414;11.010;2023-04-16T12:41:38;11.10;99.90
54461;DHT22;40371;49.414;11.010;2023-04-16T12:44:10;11.30;99.90
54461;DHT22;40371;49.414;11.010;2023-04-16T12:46:41;11.40;99.90
54461;DHT22;40371;49.414;11.010;2023-04-16T12:49:08;11.50;99.90
54461;DHT22;40371;49.414;11.010;2023-04-16T12:51:35;11.40;99.90
54461;DHT22;40371;49.414;11.010;2023-04-16T12:54:03;11.40;99.90
54461;DHT22;40371;49.414;11.010;2023-04-16T12:56:30;11.50;99.90
54461;DHT22;40371;49.414;11.010;2023-04-16T12:58:56;11.50;99.90
54461;DHT22;40371;49.414;11.010;2023-04-16T13:01:22;11.40;99.90
54461;DHT22;40371;49.414;11.010;2023-04-16T13:03:48;11.50;99.90
54461;DHT22;40371;49.414;11.010;2023-04-16T13:06:15;11.50;99.90
54461;DHT22;40371;49.414;11.010;2023-04-16T13:08:44;11.50;99.90
54461;DHT22;40371;49.414;11.010;2023-04-16T13:11:10;11.70;99.90
54461;DHT22;40371;49.414;11.010;2023-04-16T13:13:37;11.80;99.90
54461;DHT22;40371;49.414;11.010;2023-04-16T13:16:04;11.90;99.90
54461;DHT22;40371;49.414;11.010;2023-04-16T13:18:31;12.10;99.90
54461;DHT22;40371;49.414;11.010;2023-04-16T13:20:57;12.50;99.90
54461;DHT22;40371;49.414;11.010;2023-04-16T13:23:23;12.60;99.90
54461;DHT22;40371;49.414;11.010;2023-04-16T13:25:48;12.60;99.90
54461;DHT22;40371;49.414;11.010;2023-04-16T13:28:14;12.50;99.90
54461;DHT22;40371;49.414;11.010;2023-04-16T13:30:40;12.40;99.90
54461;DHT22;40371;49.414;11.010;2023-04-16T13:33:08;12.40;99.90
54461;DHT22;40371;49.414;11.010;2023-04-16T13:35:33;12.40;99.90
54461;DHT22;40371;49.414;11.010;2023-04-16T13:37:59;12.50;99.90
54461;DHT22;40371;49.414;11.010;2023-04-16T13:40:25;13.00;99.90
54461;DHT22;40371;49.414;11.010;2023-04-16T13:42:50;13.50;99.90
54461;DHT22;40371;49.414;11.010;2023-04-16T13:45:17;14.00;99.90
54461;DHT22;40371;49.414;11.010;2023-04-16T13:47:44;14.10;99.90
54461;DHT22;40371;49.414;11.010;2023-04-16T13:50:10;13.80;99.90
54461;DHT22;40371;49.414;11.010;2023-04-16T13:52:36;13.80;99.90
54461;DHT22;40371;49.414;11.010;2023-04-16T13:55:02;14.00;99.90
54461;DHT22;40371;49.414;11.010;2023-04-16T13:57:28;14.00;99.90
54461;DHT22;40371;49.414;11.010;2023-04-16T13:59:54;13.90;99.90
54461;DHT22;40371;49.414;11.010;2023-04-16T14:02:21;14.40;99.90
54461;DHT22;40371;49.414;11.010;2023-04-16T14:04:47;14.50;99.90
54461;DHT22;40371;49.414;11.010;2023-04-16T14:07:13;14.30;99.90
54461;DHT22;40371;49.414;11.010;2023-04-16T14:09:39;14.60;99.90
54461;DHT22;40371;49.414;11.010;2023-04-16T14:12:05;14.50;99.90
54461;DHT22;40371;49.414;11.010;2023-04-16T14:14:32;14.10;99.90
54461;DHT22;40371;49.414;11.010;2023-04-16T14:16:58;13.90;99.90
54461;DHT22;40371;49.414;11.010;2023-04-16T14:19:24;13.80;99.90
54461;DHT22;40371;49.414;11.010;2023-04-16T14:21:50;13.40;99.90
54461;DHT22;40371;49.414;11.010;2023-04-16T14:24:16;13.80;99.90
54461;DHT22;40371;49.414;11.010;2023-04-16T14:26:44;13.90;99.90
54461;DHT22;40371;49.414;11.010;2023-04-16T14:29:10;14.00;99.90
54461;DHT22;40371;49.414;11.010;2023-04-16T14:31:35;14.10;99.90
54461;DHT22;40371;49.414;11.010;2023-04-16T14:34:01;14.20;99.90
54461;DHT22;40371;49.414;11.010;2023-04-16T14:36:30;14.20;99.90
54461;DHT22;40371;49.414;11.010;2023-04-16T14:38:56;14.20;99.90
54461;DHT22;40371;49.414;11.010;2023-04-16T14:41:21;13.90;99.90
54461;DHT22;40371;49.414;11.010;2023-04-16T14:43:47;13.70;99.90
54461;DHT22;40371;49.414;11.010;2023-04-16T14:46:13;13.70;99.90
54461;DHT22;40371;49.414;11.010;2023-04-16T14:48:42;13.40;99.90
54461;DHT22;40371;49.414;11.010;2023-04-16T14:51:08;13.20;99.90
54461;DHT22;40371;49.414;11.010;2023-04-16T14:53:35;13.20;99.90
54461;DHT22;40371;49.414;11.010;2023-04-16T14:56:01;13.10;99.90
54461;DHT22;40371;49.414;11.010;2023-04-16T14:58:26;12.90;99.90
54461;DHT22;40371;49.414;11.010;2023-04-16T15:00:52;12.90;99.90
54461;DHT22;40371;49.414;11.010;2023-04-16T15:03:17;13.00;99.90
54461;DHT22;40371;49.414;11.010;2023-04-16T15:05:46;12.90;99.90
54461;DHT22;40371;49.414;11.010;2023-04-16T15:08:19;12.90;99.90
54461;DHT22;40371;49.414;11.010;2023-04-16T15:10:45;13.00;99.90
54461;DHT22;40371;49.414;11.010;2023-04-16T15:13:10;13.00;99.90
54461;DHT22;40371;49.414;11.010;2023-04-16T15:15:36;13.10;99.90
54461;DHT22;40371;49.414;11.010;2023-04-16T15:18:03;13.20;99.90
54461;DHT22;40371;49.414;11.010;2023-04-16T15:20:28;13.50;99.90
54461;DHT22;40371;49.414;11.010;2023-04-16T15:22:54;13.60;99.90
54461;DHT22;40371;49.414;11.010;2023-04-16T15:25:20;13.50;99.90
54461;DHT22;40371;49.414;11.010;2023-04-16T15:27:45;13.60;99.90
54461;DHT22;40371;49.414;11.010;2023-04-16T15:30:12;13.60;99.90
54461;DHT22;40371;49.414;11.010;2023-04-16T15:32:37;13.80;99.90
54461;DHT22;40371;49.414;11.010;2023-04-16T15:35:03;14.00;99.90